createdAt,value
2023-02-09T00:01:10.314Z,82.49
2023-02-09T00:03:37.806Z,82.38
2023-02-09T00:06:08.323Z,82.17
2023-02-09T00:08:36.694Z,82.80
2023-02-09T00:11:15.128Z,82.77
2023-02-09T00:13:43.894Z,82.61
2023-02-09T00:16:10.940Z,82.47
2023-02-09T00:18:37.630Z,82.90
2023-02-09T00:21:04.289Z,82.97
2023-02-09T00:23:31.605Z,83.36
2023-02-09T00:26:03.581Z,82.97
2023-02-09T00:28:30.486Z,83.13
2023-02-09T00:30:57.162Z,82.78
2023-02-09T00:33:23.833Z,82.23
2023-02-09T00:35:50.843Z,82.46
2023-02-09T00:38:17.587Z,81.98
2023-02-09T00:40:44.492Z,81.89
2023-02-09T00:43:11.975Z,81.91
2023-02-09T00:45:38.684Z,82.26
2023-02-09T00:48:05.532Z,81.73
2023-02-09T00:50:33.290Z,82.26
2023-02-09T00:52:59.859Z,82.24
2023-02-09T00:55:26.381Z,81.75
2023-02-09T00:57:53.028Z,81.34
2023-02-09T01:00:20.598Z,81.83
2023-02-09T01:02:47.421Z,81.85
2023-02-09T01:05:13.987Z,81.71
2023-02-09T01:07:40.539Z,81.94
2023-02-09T01:10:07.589Z,82.34
2023-02-09T01:12:34.375Z,82.27
2023-02-09T01:15:02.245Z,82.21
2023-02-09T01:17:29.057Z,82.33
2023-02-09T01:19:55.834Z,82.23
2023-02-09T01:22:22.653Z,82.01
2023-02-09T01:24:49.498Z,82.16
2023-02-09T01:27:16.174Z,82.02
2023-02-09T01:29:42.772Z,81.66
2023-02-09T01:32:09.383Z,81.41
2023-02-09T01:34:36.007Z,81.30
2023-02-09T01:37:02.555Z,81.44
2023-02-09T01:39:29.222Z,81.71
2023-02-09T01:41:55.784Z,81.75
2023-02-09T01:44:22.323Z,81.75
2023-02-09T01:46:49.052Z,81.67
2023-02-09T01:49:27.275Z,81.95
2023-02-09T01:52:04.497Z,81.27
2023-02-09T01:55:01.390Z,81.63
2023-02-09T01:57:34.271Z,81.63
2023-02-09T02:00:16.040Z,81.72
2023-02-09T02:02:53.005Z,81.27
2023-02-09T02:05:20.943Z,81.53
2023-02-09T02:07:57.926Z,81.53
2023-02-09T02:10:24.994Z,81.30
2023-02-09T02:12:54.183Z,81.10
2023-02-09T02:15:25.684Z,81.13
2023-02-09T02:18:38.977Z,81.28
2023-02-09T02:21:11.365Z,81.20
2023-02-09T02:23:44.612Z,81.29
2023-02-09T02:26:51.737Z,80.96
2023-02-09T02:29:30.580Z,81.16
2023-02-09T02:32:10.889Z,81.02
2023-02-09T02:34:46.040Z,81.17
2023-02-09T02:37:32.079Z,81.34
2023-02-09T02:40:34.188Z,81.21
2023-02-09T02:43:29.593Z,81.26
2023-02-09T02:46:03.712Z,81.06
2023-02-09T02:48:38.845Z,81.42
2023-02-09T02:51:11.102Z,81.11
2023-02-09T02:53:42.345Z,80.90
2023-02-09T02:56:24.868Z,81.08
2023-02-09T02:58:54.318Z,80.85
2023-02-09T03:01:26.098Z,80.90
2023-02-09T03:03:54.035Z,81.07
2023-02-09T03:06:20.611Z,81.13
2023-02-09T03:08:51.782Z,81.07
2023-02-09T03:11:20.862Z,81.13
2023-02-09T03:14:24.714Z,81.14
2023-02-09T03:17:13.164Z,81.11
2023-02-09T03:20:01.477Z,81.03
2023-02-09T03:22:52.836Z,81.33
2023-02-09T03:25:50.158Z,81.76
2023-02-09T03:28:33.743Z,81.91
2023-02-09T03:31:00.704Z,81.98
2023-02-09T03:33:29.691Z,81.54
2023-02-09T03:35:57.648Z,81.58
2023-02-09T03:38:25.230Z,81.49
2023-02-09T03:40:51.969Z,81.55
2023-02-09T03:43:18.512Z,81.60
2023-02-09T03:45:45.053Z,81.83
2023-02-09T03:48:11.952Z,81.66
2023-02-09T03:50:38.544Z,82.07
2023-02-09T03:53:06.590Z,81.87
2023-02-09T03:55:34.132Z,81.95
2023-02-09T03:58:00.719Z,82.07
2023-02-09T04:00:27.439Z,82.31
2023-02-09T04:02:53.934Z,82.30
2023-02-09T04:05:22.999Z,82.00
2023-02-09T04:07:49.758Z,82.04
2023-02-09T04:10:16.305Z,81.72
2023-02-09T04:12:42.770Z,81.66
2023-02-09T04:15:10.011Z,81.67
2023-02-09T04:17:36.847Z,81.48
2023-02-09T04:20:03.636Z,81.90
2023-02-09T04:22:30.121Z,81.36
2023-02-09T04:24:56.700Z,81.54
2023-02-09T04:27:23.265Z,81.32
2023-02-09T04:29:49.729Z,81.36
2023-02-09T04:32:16.218Z,81.74
2023-02-09T04:34:42.723Z,81.38
2023-02-09T04:37:09.258Z,81.54
2023-02-09T04:39:35.794Z,81.18
2023-02-09T04:42:02.302Z,81.38
2023-02-09T04:44:28.974Z,81.65
2023-02-09T04:46:55.483Z,81.32
2023-02-09T04:49:21.980Z,81.38
2023-02-09T04:51:48.475Z,81.64
2023-02-09T04:54:14.875Z,81.45
2023-02-09T04:56:41.375Z,81.56
2023-02-09T04:59:28.583Z,81.56
2023-02-09T05:01:55.073Z,81.19
2023-02-09T05:04:21.693Z,81.15
2023-02-09T05:06:48.206Z,81.39
2023-02-09T05:09:14.728Z,81.33
2023-02-09T05:11:41.212Z,81.56
2023-02-09T05:14:07.934Z,81.65
2023-02-09T05:16:34.493Z,81.79
2023-02-09T05:19:01.163Z,81.86
2023-02-09T05:21:27.658Z,81.57
2023-02-09T05:23:54.259Z,81.29
2023-02-09T05:26:20.831Z,81.92
2023-02-09T05:28:47.555Z,81.28
2023-02-09T05:31:14.372Z,81.91
2023-02-09T05:33:41.008Z,81.37
2023-02-09T05:36:09.589Z,81.80
2023-02-09T05:38:36.923Z,81.53
2023-02-09T05:41:05.246Z,81.74
2023-02-09T05:43:32.004Z,81.74
2023-02-09T05:45:58.575Z,81.30
2023-02-09T05:48:25.334Z,81.40
2023-02-09T05:50:52.169Z,81.27
2023-02-09T05:53:18.871Z,81.16
2023-02-09T05:55:47.160Z,81.14
2023-02-09T05:58:15.181Z,81.08
2023-02-09T06:00:41.649Z,80.96
2023-02-09T06:03:08.143Z,80.55
2023-02-09T06:05:34.755Z,80.83
2023-02-09T06:08:01.208Z,80.85
2023-02-09T06:10:27.670Z,80.78
2023-02-09T06:12:54.199Z,80.66
2023-02-09T06:15:21.150Z,80.27
2023-02-09T06:17:47.618Z,80.50
2023-02-09T06:20:14.209Z,80.31
2023-02-09T06:22:40.707Z,80.39
2023-02-09T06:25:07.425Z,80.33
2023-02-09T06:27:34.025Z,80.17
2023-02-09T06:30:00.587Z,80.26
2023-02-09T06:32:27.099Z,80.37
2023-02-09T06:34:53.581Z,80.47
2023-02-09T06:37:20.081Z,80.27
2023-02-09T06:39:46.656Z,80.42
2023-02-09T06:42:13.242Z,80.06
2023-02-09T06:44:39.800Z,80.46
2023-02-09T06:47:06.242Z,80.39
2023-02-09T06:49:32.844Z,80.39
2023-02-09T06:51:59.547Z,80.46
2023-02-09T06:54:26.680Z,80.17
2023-02-09T06:56:53.141Z,79.97
2023-02-09T06:59:19.816Z,80.08
2023-02-09T07:01:46.411Z,80.20
2023-02-09T07:04:12.984Z,80.02
2023-02-09T07:06:39.606Z,80.12
2023-02-09T07:09:06.152Z,80.29
2023-02-09T07:11:32.676Z,80.20
2023-02-09T07:13:59.898Z,80.45
2023-02-09T07:16:26.584Z,80.04
2023-02-09T07:18:53.002Z,80.22
2023-02-09T07:21:21.514Z,79.87
2023-02-09T07:23:48.860Z,80.54
2023-02-09T07:26:18.015Z,79.94
2023-02-09T07:28:44.670Z,80.42
2023-02-09T07:31:13.173Z,80.21
2023-02-09T07:33:39.786Z,80.03
2023-02-09T07:36:08.206Z,80.28
2023-02-09T07:38:35.275Z,80.04
2023-02-09T07:41:04.136Z,80.26
2023-02-09T07:43:30.991Z,80.02
2023-02-09T07:46:06.560Z,80.28
2023-02-09T07:48:34.532Z,79.81
2023-02-09T07:51:01.379Z,80.01
2023-02-09T07:53:29.018Z,80.15
2023-02-09T07:55:55.520Z,80.09
2023-02-09T07:58:22.766Z,80.25
2023-02-09T08:00:50.827Z,80.40
2023-02-09T08:03:19.593Z,80.30
2023-02-09T08:06:20.892Z,80.10
2023-02-09T08:08:49.095Z,79.93
2023-02-09T08:11:24.584Z,80.07
2023-02-09T08:13:53.219Z,79.79
2023-02-09T08:16:22.856Z,79.86
2023-02-09T08:19:03.542Z,78.89
2023-02-09T08:21:33.898Z,79.26
2023-02-09T08:24:01.039Z,79.17
2023-02-09T08:26:27.641Z,78.59
2023-02-09T08:28:54.565Z,78.47
2023-02-09T08:31:24.614Z,78.57
2023-02-09T08:33:51.500Z,78.52
2023-02-09T08:36:19.313Z,78.13
2023-02-09T08:38:49.066Z,78.17
2023-02-09T08:41:17.124Z,78.04
2023-02-09T08:43:51.627Z,78.07
2023-02-09T08:46:21.430Z,77.45
2023-02-09T08:48:56.616Z,77.57
2023-02-09T08:51:23.244Z,77.85
2023-02-09T08:53:52.560Z,77.14
2023-02-09T08:56:20.643Z,77.40
2023-02-09T08:58:47.966Z,76.53
2023-02-09T09:01:14.946Z,76.16
2023-02-09T09:03:42.476Z,76.43
2023-02-09T09:06:11.465Z,76.04
2023-02-09T09:08:39.348Z,76.19
2023-02-09T09:11:07.337Z,75.86
2023-02-09T09:13:34.087Z,75.86
2023-02-09T09:16:00.575Z,75.60
2023-02-09T09:18:27.151Z,75.52
2023-02-09T09:20:56.251Z,75.97
2023-02-09T09:23:23.134Z,75.89
2023-02-09T09:25:49.680Z,75.54
2023-02-09T09:28:17.578Z,75.08
2023-02-09T09:30:44.186Z,74.89
2023-02-09T09:33:10.756Z,74.99
2023-02-09T09:35:37.359Z,75.08
2023-02-09T09:38:04.771Z,75.08
2023-02-09T09:40:37.586Z,74.83
2023-02-09T09:43:20.159Z,74.81
2023-02-09T09:45:47.708Z,74.16
2023-02-09T09:48:26.464Z,74.17
2023-02-09T09:50:58.711Z,74.10
2023-02-09T09:53:35.417Z,73.51
2023-02-09T09:56:08.081Z,73.54
2023-02-09T09:58:39.315Z,73.17
2023-02-09T10:01:06.899Z,72.82
2023-02-09T10:03:33.518Z,72.81
2023-02-09T10:06:10.530Z,72.15
2023-02-09T10:08:43.540Z,72.77
2023-02-09T10:11:13.084Z,72.27
2023-02-09T10:13:48.742Z,72.07
2023-02-09T10:16:16.912Z,72.27
2023-02-09T10:18:44.568Z,72.30
2023-02-09T10:21:14.846Z,71.68
2023-02-09T10:23:45.290Z,71.38
2023-02-09T10:26:24.651Z,70.99
2023-02-09T10:28:56.284Z,71.25
2023-02-09T10:31:25.265Z,71.34
2023-02-09T10:33:57.939Z,71.22
2023-02-09T10:36:32.378Z,71.04
2023-02-09T10:39:12.585Z,70.54
2023-02-09T10:41:42.006Z,70.49
2023-02-09T10:44:18.347Z,70.06
2023-02-09T10:46:47.138Z,70.18
2023-02-09T10:49:38.576Z,70.23
2023-02-09T10:52:19.666Z,70.38
2023-02-09T10:54:49.071Z,70.59
2023-02-09T10:57:24.997Z,70.39
2023-02-09T10:59:59.078Z,70.22
2023-02-09T11:02:41.897Z,70.43
2023-02-09T11:05:20.682Z,70.63
2023-02-09T11:08:09.053Z,70.55
2023-02-09T11:10:41.443Z,70.86
2023-02-09T11:13:18.970Z,70.53
2023-02-09T11:16:07.711Z,70.61
2023-02-09T11:18:34.889Z,70.79
2023-02-09T11:21:29.407Z,70.68
2023-02-09T11:24:26.415Z,70.49
2023-02-09T11:26:59.850Z,70.98
2023-02-09T11:29:41.544Z,70.83
2023-02-09T11:32:08.145Z,71.07
2023-02-09T11:34:42.303Z,70.72
2023-02-09T11:37:37.259Z,70.34
2023-02-09T11:40:22.881Z,70.06
2023-02-09T11:42:52.910Z,70.47
2023-02-09T11:45:30.850Z,70.72
2023-02-09T11:48:30.572Z,70.66
2023-02-09T11:51:00.939Z,70.06
2023-02-09T11:53:39.459Z,69.78
2023-02-09T11:56:09.101Z,70.27
2023-02-09T11:58:44.553Z,69.86
2023-02-09T12:01:45.205Z,69.82
2023-02-09T12:04:34.555Z,69.61
2023-02-09T12:07:05.329Z,69.83
2023-02-09T12:09:38.996Z,69.92
2023-02-09T12:12:35.711Z,70.13
2023-02-09T12:15:05.521Z,70.46
2023-02-09T12:17:46.509Z,70.95
2023-02-09T12:20:37.299Z,71.44
2023-02-09T12:23:16.427Z,71.24
2023-02-09T12:25:59.634Z,71.17
2023-02-09T12:28:32.442Z,70.67
2023-02-09T12:30:58.932Z,70.37
2023-02-09T12:33:25.351Z,70.49
2023-02-09T12:36:10.353Z,70.80
2023-02-09T12:38:49.523Z,71.30
2023-02-09T12:41:22.832Z,71.14
2023-02-09T12:43:50.833Z,71.21
2023-02-09T12:46:20.279Z,71.02
2023-02-09T12:48:59.763Z,71.00
2023-02-09T12:51:56.045Z,70.69
2023-02-09T12:54:51.524Z,70.46
2023-02-09T12:57:18.906Z,70.82
2023-02-09T12:59:52.614Z,70.86
2023-02-09T13:02:50.480Z,70.20
2023-02-09T13:05:23.058Z,70.26
2023-02-09T13:08:16.249Z,70.01
2023-02-09T13:10:57.629Z,70.44
2023-02-09T13:13:48.022Z,70.62
2023-02-09T13:16:40.365Z,70.68
2023-02-09T13:19:09.801Z,71.17
2023-02-09T13:22:03.868Z,71.43
2023-02-09T13:24:43.087Z,71.73
2023-02-09T13:27:21.702Z,71.79
2023-02-09T13:29:50.267Z,72.44
2023-02-09T13:32:27.407Z,72.47
2023-02-09T13:35:06.263Z,72.14
2023-02-09T13:37:46.551Z,72.36
2023-02-09T13:40:26.242Z,72.70
2023-02-09T13:43:10.925Z,72.46
2023-02-09T13:45:46.810Z,73.52
2023-02-09T13:48:32.532Z,73.21
2023-02-09T13:51:12.999Z,73.60
2023-02-09T13:53:39.633Z,73.66
2023-02-09T13:56:11.899Z,73.61
2023-02-09T13:58:39.644Z,73.93
2023-02-09T14:01:14.122Z,74.13
2023-02-09T14:03:57.898Z,74.21
2023-02-09T14:06:37.217Z,74.57
2023-02-09T14:09:11.094Z,74.62
2023-02-09T14:11:47.771Z,74.90
2023-02-09T14:14:55.123Z,74.78
2023-02-09T14:17:30.925Z,75.19
2023-02-09T14:20:01.030Z,75.29
2023-02-09T14:22:35.270Z,75.52
2023-02-09T14:25:26.677Z,75.76
2023-02-09T14:27:54.443Z,76.14
2023-02-09T14:30:27.241Z,76.36
2023-02-09T14:32:56.012Z,76.44
2023-02-09T14:35:38.946Z,76.94
2023-02-09T14:38:34.287Z,77.32
2023-02-09T14:41:30.615Z,77.31
2023-02-09T14:44:01.091Z,77.24
2023-02-09T14:46:28.220Z,77.64
2023-02-09T14:48:58.248Z,78.00
2023-02-09T14:51:27.588Z,77.84
2023-02-09T14:53:54.806Z,77.96
2023-02-09T14:56:30.158Z,77.90
2023-02-09T14:58:56.798Z,78.11
2023-02-09T15:01:23.500Z,78.15
2023-02-09T15:03:50.462Z,78.29
2023-02-09T15:06:17.237Z,78.56
2023-02-09T15:08:44.209Z,78.51
2023-02-09T15:11:42.252Z,78.80
2023-02-09T15:14:12.152Z,78.88
2023-02-09T15:16:41.989Z,79.14
2023-02-09T15:19:16.528Z,79.24
2023-02-09T15:21:43.120Z,79.44
2023-02-09T15:24:09.689Z,79.28
2023-02-09T15:26:36.903Z,79.66
2023-02-09T15:29:11.221Z,79.80
2023-02-09T15:31:38.021Z,79.88
2023-02-09T15:34:05.365Z,79.74
2023-02-09T15:36:32.268Z,79.83
2023-02-09T15:38:58.996Z,80.17
2023-02-09T15:41:44.237Z,80.19
2023-02-09T15:44:38.406Z,80.29
2023-02-09T15:47:24.138Z,80.66
2023-02-09T15:49:50.754Z,80.64
2023-02-09T15:52:20.642Z,80.72
2023-02-09T15:54:49.430Z,80.94
2023-02-09T15:57:15.963Z,81.65
2023-02-09T15:59:43.066Z,81.44
2023-02-09T16:02:14.793Z,81.82
2023-02-09T16:04:41.532Z,81.74
2023-02-09T16:07:13.750Z,82.32
2023-02-09T16:09:42.782Z,82.45
2023-02-09T16:12:11.513Z,82.42
2023-02-09T16:14:38.550Z,82.48
2023-02-09T16:17:05.881Z,82.64
2023-02-09T16:19:32.532Z,82.67
2023-02-09T16:22:03.098Z,82.91
2023-02-09T16:24:42.194Z,83.06
2023-02-09T16:27:16.227Z,83.35
2023-02-09T16:29:43.101Z,83.59
2023-02-09T16:32:18.818Z,83.67
2023-02-09T16:34:47.492Z,83.86
2023-02-09T16:37:20.999Z,84.37
2023-02-09T16:39:47.882Z,84.45
2023-02-09T16:42:15.915Z,84.84
2023-02-09T16:44:42.744Z,84.89
2023-02-09T16:47:21.675Z,84.95
2023-02-09T16:50:01.246Z,85.17
2023-02-09T16:52:32.408Z,85.29
2023-02-09T16:55:04.835Z,85.56
2023-02-09T16:57:31.374Z,85.69
2023-02-09T16:59:57.834Z,85.60
2023-02-09T17:02:30.383Z,86.06
2023-02-09T17:04:58.105Z,85.98
2023-02-09T17:07:30.255Z,86.29
2023-02-09T17:09:57.606Z,86.53
2023-02-09T17:12:24.314Z,86.64
2023-02-09T17:14:50.861Z,86.68
2023-02-09T17:17:20.155Z,87.01
2023-02-09T17:19:49.654Z,87.40
2023-02-09T17:22:17.182Z,87.43
2023-02-09T17:24:43.832Z,87.70
2023-02-09T17:27:10.434Z,87.85
2023-02-09T17:29:37.022Z,87.90
2023-02-09T17:32:05.561Z,87.76
2023-02-09T17:34:32.230Z,88.18
2023-02-09T17:36:58.897Z,88.23
2023-02-09T17:39:25.411Z,88.34
2023-02-09T17:41:52.081Z,88.67
2023-02-09T17:44:44.585Z,88.68
2023-02-09T17:47:19.897Z,88.88
2023-02-09T17:49:46.878Z,88.91
2023-02-09T17:52:19.022Z,88.90
2023-02-09T17:54:46.325Z,89.20
2023-02-09T17:57:16.959Z,89.20
2023-02-09T17:59:45.993Z,89.48
2023-02-09T18:02:18.005Z,89.41
2023-02-09T18:04:44.701Z,89.59
2023-02-09T18:07:11.476Z,89.25
2023-02-09T18:09:38.124Z,89.46
2023-02-09T18:12:11.467Z,89.42
2023-02-09T18:14:38.035Z,89.47
2023-02-09T18:17:04.695Z,90.27
2023-02-09T18:19:32.938Z,90.24
2023-02-09T18:22:02.036Z,89.91
2023-02-09T18:24:33.085Z,89.90
2023-02-09T18:26:59.795Z,90.32
2023-02-09T18:29:29.247Z,90.39
2023-02-09T18:32:01.450Z,90.65
2023-02-09T18:34:28.675Z,90.81
2023-02-09T18:36:55.434Z,90.92
2023-02-09T18:39:22.093Z,90.95
2023-02-09T18:41:54.296Z,90.94
2023-02-09T18:44:24.513Z,90.81
2023-02-09T18:46:51.376Z,90.90
2023-02-09T18:49:17.816Z,90.88
2023-02-09T18:51:44.304Z,90.49
2023-02-09T18:54:11.148Z,90.90
2023-02-09T18:56:37.994Z,90.83
2023-02-09T18:59:04.601Z,91.14
2023-02-09T19:01:31.540Z,91.31
2023-02-09T19:03:58.132Z,91.30
2023-02-09T19:06:25.423Z,91.46
2023-02-09T19:08:52.359Z,92.02
2023-02-09T19:11:22.398Z,92.04
2023-02-09T19:14:09.836Z,92.15
2023-02-09T19:16:37.373Z,92.20
2023-02-09T19:19:06.552Z,91.81
2023-02-09T19:21:33.032Z,92.17
2023-02-09T19:23:59.594Z,92.21
2023-02-09T19:26:26.294Z,92.27
2023-02-09T19:28:52.897Z,92.66
2023-02-09T19:31:26.806Z,92.76
2023-02-09T19:33:57.738Z,92.56
2023-02-09T19:36:27.778Z,92.89
2023-02-09T19:38:55.579Z,92.93
2023-02-09T19:41:24.015Z,93.15
2023-02-09T19:43:54.795Z,93.27
2023-02-09T19:46:21.526Z,93.57
2023-02-09T19:48:48.338Z,93.51
2023-02-09T19:51:15.580Z,94.01
2023-02-09T19:53:42.152Z,93.95
2023-02-09T19:56:14.623Z,93.83
2023-02-09T19:58:41.263Z,93.71
2023-02-09T20:01:11.641Z,93.90
2023-02-09T20:03:38.765Z,93.68
2023-02-09T20:06:10.561Z,93.72
2023-02-09T20:08:37.771Z,93.81
2023-02-09T20:11:09.146Z,93.99
2023-02-09T20:13:36.239Z,93.86
2023-02-09T20:16:10.346Z,94.14
2023-02-09T20:18:37.207Z,94.21
2023-02-09T20:21:08.545Z,93.77
2023-02-09T20:23:36.982Z,93.95
2023-02-09T20:26:13.025Z,94.17
2023-02-09T20:28:40.144Z,93.86
2023-02-09T20:31:08.958Z,94.30
2023-02-09T20:33:39.205Z,94.50
2023-02-09T20:36:07.944Z,94.37
2023-02-09T20:38:38.766Z,94.24
2023-02-09T20:41:12.599Z,94.16
2023-02-09T20:43:58.239Z,94.13
2023-02-09T20:46:45.013Z,94.30
2023-02-09T20:49:14.985Z,94.32
2023-02-09T20:51:42.440Z,94.43
2023-02-09T20:54:09.390Z,94.15
2023-02-09T20:56:36.698Z,94.02
2023-02-09T20:59:04.547Z,94.12
2023-02-09T21:01:31.096Z,94.04
2023-02-09T21:04:00.402Z,93.95
2023-02-09T21:06:28.899Z,94.31
2023-02-09T21:08:57.825Z,94.06
2023-02-09T21:11:24.368Z,93.91
2023-02-09T21:13:53.536Z,94.04
2023-02-09T21:16:20.577Z,94.27
2023-02-09T21:18:47.210Z,94.20
2023-02-09T21:21:17.249Z,94.22
2023-02-09T21:23:45.186Z,94.30
2023-02-09T21:26:15.766Z,94.25
2023-02-09T21:28:43.863Z,94.44
2023-02-09T21:31:12.417Z,94.25
2023-02-09T21:33:39.252Z,94.51
2023-02-09T21:36:07.571Z,94.52
2023-02-09T21:38:36.992Z,94.24
2023-02-09T21:41:35.390Z,94.64
2023-02-09T21:44:26.701Z,94.53
2023-02-09T21:46:54.120Z,94.73
2023-02-09T21:49:21.622Z,94.58
2023-02-09T21:51:48.147Z,94.59
2023-02-09T21:54:16.651Z,94.63
2023-02-09T21:56:43.978Z,94.86
2023-02-09T21:59:13.574Z,95.06
2023-02-09T22:01:42.505Z,95.11
2023-02-09T22:04:09.236Z,95.33
2023-02-09T22:06:36.160Z,95.13
2023-02-09T22:09:03.794Z,95.15
2023-02-09T22:11:34.421Z,95.75
2023-02-09T22:14:00.945Z,95.26
2023-02-09T22:16:27.793Z,95.42
2023-02-09T22:18:57.134Z,95.55
2023-02-09T22:21:44.001Z,95.50
2023-02-09T22:24:16.689Z,95.35
2023-02-09T22:26:44.403Z,95.20
2023-02-09T22:29:12.732Z,95.27
2023-02-09T22:31:39.876Z,95.21
2023-02-09T22:34:07.495Z,95.39
2023-02-09T22:36:35.421Z,95.28
2023-02-09T22:39:04.537Z,95.68
2023-02-09T22:41:31.494Z,95.20
2023-02-09T22:44:05.508Z,95.75
2023-02-09T22:46:35.758Z,95.51
2023-02-09T22:49:05.990Z,95.59
2023-02-09T22:51:33.852Z,95.53
2023-02-09T22:54:01.729Z,95.47
2023-02-09T22:56:30.416Z,95.58
2023-02-09T22:58:59.092Z,95.76
2023-02-09T23:01:26.779Z,96.15
2023-02-09T23:03:54.216Z,95.87
2023-02-09T23:06:27.092Z,95.87
2023-02-09T23:08:55.944Z,96.45
2023-02-09T23:11:23.041Z,96.46
2023-02-09T23:13:55.086Z,96.69
2023-02-09T23:16:33.919Z,96.74
2023-02-09T23:19:03.853Z,96.70
2023-02-09T23:21:37.016Z,96.72
2023-02-09T23:24:04.617Z,96.92
2023-02-09T23:26:31.643Z,96.98
2023-02-09T23:29:00.588Z,97.04
2023-02-09T23:31:27.967Z,97.14
2023-02-09T23:33:55.209Z,97.29
2023-02-09T23:36:25.200Z,97.58
2023-02-09T23:38:59.889Z,97.05
2023-02-09T23:41:27.058Z,97.56
2023-02-09T23:43:54.575Z,97.34
2023-02-09T23:46:24.090Z,97.46
2023-02-09T23:48:53.323Z,97.28
2023-02-09T23:51:24.574Z,97.17
2023-02-09T23:53:51.378Z,97.31
2023-02-09T23:56:18.682Z,97.87
2023-02-09T23:58:51.552Z,97.62
